createdAt,value
2023-07-24T00:00:02.434Z,283.068
2023-07-24T00:05:02.399Z,253.82
2023-07-24T00:10:02.505Z,162.711
2023-07-24T00:15:02.544Z,161.858
2023-07-24T00:20:02.472Z,161.683
2023-07-24T00:25:02.402Z,161.468
2023-07-24T00:30:02.427Z,206.58700000000002
2023-07-24T00:35:02.506Z,285.056
2023-07-24T00:40:02.492Z,299.92
2023-07-24T00:45:05.121Z,251.318
2023-07-24T00:50:02.405Z,190.00300000000001
2023-07-24T00:55:02.585Z,195.616
2023-07-24T01:00:02.463Z,197.288
2023-07-24T01:05:02.458Z,197.008
2023-07-24T01:10:02.481Z,251.868
2023-07-24T01:15:02.673Z,421.90500000000003
2023-07-24T01:20:02.459Z,294.91700000000003
2023-07-24T01:25:02.476Z,220.018
2023-07-24T01:30:02.448Z,181.21200000000002
2023-07-24T01:35:02.657Z,175.984
2023-07-24T01:40:02.488Z,158.882
2023-07-24T01:45:02.498Z,158.875
2023-07-24T01:50:02.515Z,257.211
2023-07-24T01:55:02.498Z,275.358
2023-07-24T02:00:02.518Z,270.318
2023-07-24T02:05:02.559Z,179.805
2023-07-24T02:10:02.706Z,174.054
2023-07-24T02:15:02.545Z,183.553
2023-07-24T02:20:02.561Z,182.786
2023-07-24T02:25:02.520Z,182.125
2023-07-24T02:30:02.634Z,282.967
2023-07-24T02:35:02.487Z,296.952
2023-07-24T02:40:02.509Z,300.307
2023-07-24T02:45:02.521Z,204.558
2023-07-24T02:50:02.741Z,190.80700000000002
2023-07-24T02:55:02.572Z,191.108
2023-07-24T03:00:02.552Z,158.034
2023-07-24T03:05:02.539Z,154.901
2023-07-24T03:10:02.726Z,269.142
2023-07-24T03:15:02.568Z,289.994
2023-07-24T03:20:02.574Z,290.943
2023-07-24T03:25:02.548Z,202.449
2023-07-24T03:30:02.683Z,183.494
2023-07-24T03:35:02.536Z,182.662
2023-07-24T03:40:02.603Z,182.749
2023-07-24T03:45:02.594Z,283.918
2023-07-24T03:50:02.563Z,244.684
2023-07-24T03:55:02.667Z,275.879
2023-07-24T04:00:02.666Z,270.60200000000003
2023-07-24T04:05:02.673Z,195.43800000000002
2023-07-24T04:10:02.644Z,159.67000000000002
2023-07-24T04:15:02.651Z,159.589
2023-07-24T04:20:02.647Z,168.716
2023-07-24T04:25:02.694Z,183.891
2023-07-24T04:30:02.644Z,267.404
2023-07-24T04:35:02.658Z,298.03000000000003
2023-07-24T04:40:02.640Z,295.91200000000003
2023-07-24T04:45:02.693Z,237.677
2023-07-24T04:50:02.579Z,193.35500000000002
2023-07-24T04:55:02.647Z,194.41
2023-07-24T05:00:02.695Z,176.86
2023-07-24T05:05:02.669Z,159.651
2023-07-24T05:10:02.717Z,232.132
2023-07-24T05:15:02.701Z,302.002
2023-07-24T05:20:02.688Z,301.217
2023-07-24T05:25:02.812Z,279.795
2023-07-24T05:30:02.656Z,708.547
2023-07-24T05:35:02.675Z,730.765
2023-07-24T05:40:02.722Z,216.36700000000002
2023-07-24T05:45:02.777Z,210.65200000000002
2023-07-24T05:50:02.723Z,250.871
2023-07-24T05:55:02.708Z,328.403
2023-07-24T06:00:02.684Z,375.576
2023-07-24T06:05:02.759Z,416.127
2023-07-24T06:10:02.891Z,458.498
2023-07-24T06:15:02.810Z,258.605
2023-07-24T06:20:02.752Z,972.844
2023-07-24T06:25:02.732Z,3011.129
2023-07-24T06:30:13.482Z,3278.856
2023-07-24T06:35:02.751Z,555.9780000000001
2023-07-24T06:40:02.728Z,371.23900000000003
2023-07-24T06:45:02.819Z,327.419
2023-07-24T06:50:02.940Z,265.022
2023-07-24T06:55:02.763Z,258.308
2023-07-24T07:00:02.719Z,252.88500000000002
2023-07-24T07:05:02.773Z,252.71800000000002
2023-07-24T07:10:03.068Z,303.696
2023-07-24T07:15:02.817Z,350.713
2023-07-24T07:20:02.792Z,340.29200000000003
2023-07-24T07:25:02.752Z,561.384
2023-07-24T07:30:02.932Z,1086.65
2023-07-24T07:35:02.804Z,178.592
2023-07-24T07:40:02.796Z,178.357
2023-07-24T07:45:02.784Z,200.661
2023-07-24T07:50:02.908Z,279.994
2023-07-24T07:55:02.822Z,330.807
2023-07-24T08:00:02.785Z,325.244
2023-07-24T08:05:06.554Z,253.695
2023-07-24T08:10:02.917Z,205.536
2023-07-24T08:15:02.856Z,200.03300000000002
2023-07-24T08:20:02.816Z,203.082
2023-07-24T08:25:02.860Z,201.69
2023-07-24T08:30:02.850Z,266.724
2023-07-24T08:35:03.091Z,322.906
2023-07-24T08:40:02.893Z,313.687
2023-07-24T08:45:02.887Z,241.885
2023-07-24T08:50:02.842Z,186.981
2023-07-24T08:55:03.074Z,188.798
2023-07-24T09:00:02.896Z,183.131
2023-07-24T09:05:02.922Z,306.904
2023-07-24T09:10:02.903Z,231.543
2023-07-24T09:15:02.920Z,685.014
2023-07-24T09:20:02.926Z,1020.831
2023-07-24T09:25:02.893Z,1235.835
2023-07-24T09:30:03.036Z,1127.602
2023-07-24T09:35:04.823Z,1125.531
2023-07-24T09:40:02.930Z,1196.854
2023-07-24T09:45:02.896Z,320.1
2023-07-24T09:50:03.005Z,308.51
2023-07-24T09:55:02.874Z,353.315
2023-07-24T10:00:02.888Z,349.952
2023-07-24T10:05:02.927Z,320.736
2023-07-24T10:10:03.060Z,259.499
2023-07-24T10:15:02.939Z,286.234
2023-07-24T10:20:02.911Z,372.749
2023-07-24T10:25:02.978Z,2487.422
2023-07-24T10:30:06.867Z,1578.512
2023-07-24T10:35:02.956Z,402.931
2023-07-24T10:40:02.980Z,398.269
2023-07-24T10:45:02.975Z,317.722
2023-07-24T10:50:03.175Z,242.68200000000002
2023-07-24T10:55:02.953Z,248.308
2023-07-24T11:00:02.957Z,310.738
2023-07-24T11:05:03.054Z,263.51
2023-07-24T11:10:03.161Z,301.133
2023-07-24T11:15:02.993Z,381.69100000000003
2023-07-24T11:20:03.001Z,376.289
2023-07-24T11:25:03.036Z,325.273
2023-07-24T11:30:03.109Z,237.64000000000001
2023-07-24T11:35:03.021Z,237.903
2023-07-24T11:40:03.037Z,239.35
2023-07-24T11:45:03.077Z,234.895
2023-07-24T11:50:03.178Z,278.853
2023-07-24T11:55:03.005Z,476.252
2023-07-24T12:00:03.016Z,346.54900000000004
2023-07-24T12:05:03.097Z,327.056
2023-07-24T12:10:03.205Z,252.942
2023-07-24T12:15:03.063Z,270.379
2023-07-24T12:20:03.074Z,980.9250000000001
2023-07-24T12:25:03.018Z,2400.942
2023-07-24T12:30:03.186Z,2419.331
2023-07-24T12:35:03.131Z,2053.052
2023-07-24T12:40:03.125Z,331.23900000000003
2023-07-24T12:45:03.071Z,269.243
2023-07-24T12:50:04.424Z,224.076
2023-07-24T12:55:03.270Z,650.01
2023-07-24T13:00:03.143Z,750.4970000000001
2023-07-24T13:05:03.073Z,204.135
2023-07-24T13:10:03.213Z,274.998
2023-07-24T13:15:00.681Z,317.36400000000003
2023-07-24T13:20:00.785Z,316.314
2023-07-24T13:25:00.589Z,241.025
2023-07-24T13:30:00.624Z,194.314
2023-07-24T13:35:00.637Z,212.399
2023-07-24T13:40:00.807Z,239.62900000000002
2023-07-24T13:45:00.555Z,249.747
2023-07-24T13:50:00.726Z,326.374
2023-07-24T13:55:00.596Z,359.133
2023-07-24T14:00:00.784Z,343.785
2023-07-24T14:05:00.685Z,272.65500000000003
2023-07-24T14:10:00.654Z,221.381
2023-07-24T14:15:00.764Z,227.416
2023-07-24T14:20:00.639Z,228.75900000000001
2023-07-24T14:25:00.761Z,224.26500000000001
2023-07-24T14:30:00.629Z,283.87600000000003
2023-07-24T14:35:00.802Z,328.005
2023-07-24T14:40:00.684Z,317.321
2023-07-24T14:45:00.644Z,253.863
2023-07-24T14:50:00.777Z,204.00900000000001
2023-07-24T14:55:00.709Z,200.941
2023-07-24T15:00:00.698Z,821.89
2023-07-24T15:05:00.697Z,1432.402
2023-07-24T15:10:00.958Z,1635.6670000000001
2023-07-24T15:15:00.821Z,3881.356
2023-07-24T15:20:00.707Z,3534.118
2023-07-24T15:25:00.720Z,1680.262
2023-07-24T15:30:00.721Z,257.14
2023-07-24T15:35:00.689Z,477.423
2023-07-24T15:40:00.747Z,978.729
2023-07-24T15:45:00.846Z,313.06
2023-07-24T15:50:00.707Z,372.377
2023-07-24T15:55:00.835Z,403.172
2023-07-24T16:00:00.735Z,401.56600000000003
2023-07-24T16:05:00.954Z,330.788
2023-07-24T16:10:00.798Z,573.191
2023-07-24T16:15:00.766Z,386.242
2023-07-24T16:20:00.882Z,300.748
2023-07-24T16:25:00.839Z,300.91200000000003
2023-07-24T16:30:00.760Z,376.374
2023-07-24T16:35:00.760Z,714.022
2023-07-24T16:40:00.974Z,530.699
2023-07-24T16:45:00.789Z,341.12600000000003
2023-07-24T16:50:00.771Z,304.331
2023-07-24T16:55:00.777Z,248.112
2023-07-24T17:00:00.796Z,247.845
2023-07-24T17:05:00.762Z,246.05700000000002
2023-07-24T17:10:00.794Z,362.772
2023-07-24T17:15:00.970Z,383.862
2023-07-24T17:20:00.787Z,376.603
2023-07-24T17:25:00.798Z,274.01
2023-07-24T17:30:00.852Z,262.849
2023-07-24T17:35:00.964Z,261.798
2023-07-24T17:40:00.962Z,260.237
2023-07-24T17:45:00.821Z,258.134
2023-07-24T17:50:07.694Z,384.867
2023-07-24T17:55:00.875Z,414.411
2023-07-24T18:00:00.813Z,1478.067
2023-07-24T18:05:00.845Z,3318.1510000000003
2023-07-24T18:10:01.106Z,2747.283
2023-07-24T18:15:00.876Z,362.675
2023-07-24T18:20:00.901Z,340.353
2023-07-24T18:25:00.863Z,360.623
2023-07-24T18:30:00.883Z,475.909
2023-07-24T18:35:00.811Z,457.653
2023-07-24T18:40:00.912Z,438.896
2023-07-24T18:45:00.976Z,368.14300000000003
2023-07-24T18:50:00.853Z,477.827
2023-07-24T18:55:00.907Z,688.821
2023-07-24T19:00:00.853Z,4756.896
2023-07-24T19:05:01.134Z,3347.08
2023-07-24T19:10:00.929Z,713.812
2023-07-24T19:15:01.078Z,702.457
2023-07-24T19:20:00.972Z,656.966
2023-07-24T19:25:01.027Z,542.144
2023-07-24T19:30:00.903Z,536.3870000000001
2023-07-24T19:35:00.890Z,550.048
2023-07-24T19:40:01.006Z,567.414
2023-07-24T19:45:00.973Z,620.7520000000001
2023-07-24T19:50:00.935Z,730.022
2023-07-24T19:55:00.931Z,738.754
2023-07-24T20:00:00.975Z,691.563
2023-07-24T20:05:00.960Z,589.561
2023-07-24T20:10:01.125Z,563.865
2023-07-24T20:15:01.054Z,563.119
2023-07-24T20:20:01.049Z,566.1850000000001
2023-07-24T20:25:00.949Z,602.6370000000001
2023-07-24T20:30:00.998Z,680.626
2023-07-24T20:35:00.943Z,697.364
2023-07-24T20:40:01.108Z,1235.935
2023-07-24T20:45:00.994Z,650.524
2023-07-24T20:50:00.976Z,700.244
2023-07-24T20:55:00.963Z,646.856
2023-07-24T21:00:01.147Z,2828.218
2023-07-24T21:05:01.039Z,2797.759
2023-07-24T21:10:01.020Z,2470.0570000000002
2023-07-24T21:15:01.007Z,687.9730000000001
2023-07-24T21:20:01.126Z,665.3770000000001
2023-07-24T21:25:01.008Z,606.761
2023-07-24T21:30:01.084Z,553.374
2023-07-24T21:35:01.028Z,527.773
2023-07-24T21:40:01.013Z,513.962
2023-07-24T21:45:01.095Z,557.6270000000001
2023-07-24T21:50:01.016Z,639.506
2023-07-24T21:55:01.141Z,638.335
2023-07-24T22:00:01.085Z,610.1270000000001
2023-07-24T22:05:01.051Z,561.533
2023-07-24T22:10:01.173Z,558.529
2023-07-24T22:15:01.355Z,574.692
2023-07-24T22:20:01.074Z,553.687
2023-07-24T22:25:01.030Z,626.221
2023-07-24T22:30:01.154Z,683.04
2023-07-24T22:35:01.124Z,668.274
2023-07-24T22:40:01.086Z,368.158
2023-07-24T22:45:01.134Z,275.874
2023-07-24T22:50:01.186Z,273.232
2023-07-24T22:55:01.067Z,267.873
2023-07-24T23:00:01.082Z,245.445
2023-07-24T23:05:01.085Z,328.313
2023-07-24T23:10:01.244Z,349.12600000000003
2023-07-24T23:15:01.142Z,334.254
2023-07-24T23:20:01.117Z,251.495
2023-07-24T23:25:01.108Z,222.86700000000002
2023-07-24T23:30:01.223Z,223.52700000000002
2023-07-24T23:35:01.136Z,224.05700000000002
2023-07-24T23:40:01.128Z,224.32
2023-07-24T23:45:01.119Z,317.17
2023-07-24T23:50:01.328Z,351.82800000000003
2023-07-24T23:55:01.128Z,321.551
